createdAt,value
2018-06-13T00:00:50.817Z,0.00
2018-06-13T00:01:50.670Z,0.00
2018-06-13T00:02:50.594Z,0.00
2018-06-13T00:03:50.525Z,0.00
2018-06-13T00:04:50.444Z,0.00
2018-06-13T00:05:50.357Z,0.00
2018-06-13T00:06:50.283Z,0.00
2018-06-13T00:07:50.207Z,0.00
2018-06-13T00:08:50.121Z,0.00
2018-06-13T00:09:50.047Z,0.00
2018-06-13T00:10:49.971Z,0.00
2018-06-13T00:11:49.897Z,0.00
2018-06-13T00:12:49.807Z,0.00
2018-06-13T00:13:49.734Z,0.00
2018-06-13T00:14:49.657Z,0.00
2018-06-13T00:15:49.583Z,0.00
2018-06-13T00:16:49.497Z,0.00
2018-06-13T00:17:49.420Z,0.00
2018-06-13T00:18:49.338Z,0.00
2018-06-13T00:19:49.259Z,0.00
2018-06-13T00:20:49.185Z,0.00
2018-06-13T00:21:49.111Z,0.00
2018-06-13T00:22:49.022Z,0.00
2018-06-13T00:23:48.947Z,0.00
2018-06-13T00:24:48.873Z,0.00
2018-06-13T00:25:48.785Z,0.00
2018-06-13T00:26:48.722Z,0.00
2018-06-13T00:27:48.635Z,0.00
2018-06-13T00:28:48.561Z,0.00
2018-06-13T00:29:48.484Z,0.00
2018-06-13T00:30:48.399Z,0.00
2018-06-13T00:31:48.323Z,0.00
2018-06-13T00:32:48.237Z,0.00
2018-06-13T00:33:48.163Z,0.00
2018-06-13T00:34:48.088Z,0.00
2018-06-13T00:35:48.010Z,0.00
2018-06-13T00:36:47.930Z,0.00
2018-06-13T00:37:47.849Z,0.00
2018-06-13T00:38:47.774Z,0.00
2018-06-13T00:39:47.687Z,0.00
2018-06-13T00:40:47.612Z,0.00
2018-06-13T00:41:47.536Z,0.00
2018-06-13T00:42:47.450Z,0.00
2018-06-13T00:43:47.375Z,0.00
2018-06-13T00:44:47.304Z,0.00
2018-06-13T00:45:47.214Z,0.00
2018-06-13T00:46:47.137Z,0.00
2018-06-13T00:47:47.074Z,0.00
2018-06-13T00:48:46.988Z,0.00
2018-06-13T00:49:46.900Z,0.00
2018-06-13T00:50:46.825Z,0.00
2018-06-13T00:51:46.750Z,0.00
2018-06-13T00:52:46.675Z,0.00
2018-06-13T00:53:46.587Z,0.00
2018-06-13T00:54:46.513Z,0.00
2018-06-13T00:55:46.428Z,0.00
2018-06-13T00:56:46.351Z,0.00
2018-06-13T00:57:46.277Z,0.00
2018-06-13T00:58:46.201Z,0.00
2018-06-13T00:59:46.113Z,0.00
2018-06-13T01:00:46.040Z,0.00
2018-06-13T01:01:45.963Z,0.00
2018-06-13T01:02:45.876Z,0.00
2018-06-13T01:03:45.802Z,0.00
2018-06-13T01:04:45.715Z,0.00
2018-06-13T01:05:45.639Z,0.00
2018-06-13T01:06:45.564Z,0.00
2018-06-13T01:07:45.488Z,0.00
2018-06-13T01:08:45.404Z,0.00
2018-06-13T01:09:45.327Z,0.00
2018-06-13T01:10:45.253Z,0.00
2018-06-13T01:11:45.165Z,0.00
2018-06-13T01:12:45.090Z,0.00
2018-06-13T01:13:45.015Z,0.00
2018-06-13T01:14:44.928Z,0.00
2018-06-13T01:15:44.853Z,0.00
2018-06-13T01:16:44.780Z,0.00
2018-06-13T01:17:44.689Z,0.00
2018-06-13T01:18:44.615Z,0.00
2018-06-13T01:19:44.540Z,0.00
2018-06-13T01:20:44.454Z,0.00
2018-06-13T01:21:44.379Z,0.00
2018-06-13T01:22:44.303Z,0.00
2018-06-13T01:23:44.216Z,0.00
2018-06-13T01:24:44.141Z,0.00
2018-06-13T01:25:44.066Z,0.00
2018-06-13T01:26:43.980Z,0.00
2018-06-13T01:27:43.904Z,0.00
2018-06-13T01:28:43.828Z,0.00
2018-06-13T01:29:43.754Z,0.00
2018-06-13T01:30:43.666Z,0.00
2018-06-13T01:31:43.593Z,0.00
2018-06-13T01:32:43.505Z,0.00
2018-06-13T01:33:43.429Z,0.00
2018-06-13T01:34:43.355Z,0.00
2018-06-13T01:35:43.267Z,0.00
2018-06-13T01:36:43.191Z,0.00
2018-06-13T01:37:43.118Z,0.00
2018-06-13T01:38:43.033Z,0.00
2018-06-13T01:39:43.209Z,0.00
2018-06-13T01:40:42.883Z,0.00
2018-06-13T01:41:42.792Z,0.00
2018-06-13T01:42:42.717Z,0.00
2018-06-13T01:43:42.657Z,0.00
2018-06-13T01:44:42.856Z,0.00
2018-06-13T01:45:42.484Z,0.00
2018-06-13T01:46:42.407Z,0.00
2018-06-13T01:47:42.318Z,0.00
2018-06-13T01:48:42.293Z,0.00
2018-06-13T01:49:42.168Z,0.00
2018-06-13T01:50:42.081Z,0.00
2018-06-13T01:51:42.008Z,0.00
2018-06-13T01:52:41.931Z,0.00
2018-06-13T01:53:41.843Z,0.00
2018-06-13T01:54:41.770Z,0.00
2018-06-13T01:55:41.694Z,0.00
2018-06-13T01:56:41.607Z,0.00
2018-06-13T01:57:41.533Z,0.00
2018-06-13T01:58:41.458Z,0.00
2018-06-13T01:59:41.384Z,0.00
2018-06-13T02:00:41.294Z,0.00
2018-06-13T02:01:41.219Z,0.00
2018-06-13T02:02:41.148Z,0.00
2018-06-13T02:03:41.058Z,0.00
2018-06-13T02:04:40.973Z,0.00
2018-06-13T02:05:40.895Z,0.00
2018-06-13T02:06:40.821Z,0.00
2018-06-13T02:07:40.745Z,0.00
2018-06-13T02:08:40.661Z,0.00
2018-06-13T02:09:40.584Z,0.00
2018-06-13T02:10:40.497Z,0.00
2018-06-13T02:11:40.422Z,0.00
2018-06-13T02:12:40.346Z,0.00
2018-06-13T02:13:40.265Z,0.00
2018-06-13T02:14:40.185Z,0.00
2018-06-13T02:15:40.111Z,0.00
2018-06-13T02:16:40.035Z,0.00
2018-06-13T02:17:39.946Z,0.00
2018-06-13T02:18:39.871Z,0.00
2018-06-13T02:19:40.085Z,0.00
2018-06-13T02:20:39.709Z,0.00
2018-06-13T02:21:39.635Z,0.00
2018-06-13T02:22:39.547Z,0.00
2018-06-13T02:23:39.472Z,0.00
2018-06-13T02:24:39.397Z,0.00
2018-06-13T02:25:39.311Z,0.00
2018-06-13T02:26:39.283Z,0.00
2018-06-13T02:27:39.161Z,0.00
2018-06-13T02:28:39.088Z,0.00
2018-06-13T02:29:38.998Z,0.00
2018-06-13T02:30:38.923Z,0.00
2018-06-13T02:31:38.842Z,0.00
2018-06-13T02:32:38.762Z,0.00
2018-06-13T02:33:38.674Z,0.00
2018-06-13T02:34:38.598Z,0.00
2018-06-13T02:35:38.524Z,0.00
2018-06-13T02:36:38.437Z,0.00
2018-06-13T02:37:38.362Z,0.00
2018-06-13T02:38:38.287Z,0.00
2018-06-13T02:39:38.200Z,0.00
2018-06-13T02:40:38.124Z,0.00
2018-06-13T02:41:38.050Z,0.00
2018-06-13T02:42:37.963Z,0.00
2018-06-13T02:43:37.888Z,0.00
2018-06-13T02:44:37.802Z,0.00
2018-06-13T02:45:37.725Z,0.00
2018-06-13T02:46:37.650Z,0.00
2018-06-13T02:47:37.563Z,0.00
2018-06-13T02:48:37.489Z,5.63
2018-06-13T02:49:37.413Z,5.63
2018-06-13T02:50:37.326Z,5.63
2018-06-13T02:51:37.250Z,5.63
2018-06-13T02:52:37.175Z,5.63
2018-06-13T02:53:37.090Z,5.63
2018-06-13T02:54:37.013Z,5.63
2018-06-13T02:55:36.940Z,5.63
2018-06-13T02:56:36.851Z,5.63
2018-06-13T02:57:36.781Z,5.63
2018-06-13T02:58:36.720Z,5.63
2018-06-13T02:59:36.615Z,11.25
2018-06-13T03:00:36.540Z,11.25
2018-06-13T03:01:36.453Z,11.25
2018-06-13T03:02:36.380Z,11.25
2018-06-13T03:03:36.302Z,11.25
2018-06-13T03:04:36.216Z,5.63
2018-06-13T03:05:36.141Z,5.63
2018-06-13T03:06:36.066Z,5.63
2018-06-13T03:07:35.979Z,5.63
2018-06-13T03:08:35.902Z,5.63
2018-06-13T03:09:35.828Z,5.63
2018-06-13T03:10:35.742Z,5.63
2018-06-13T03:11:35.667Z,5.63
2018-06-13T03:12:35.590Z,11.25
2018-06-13T03:13:35.502Z,11.25
2018-06-13T03:14:35.432Z,11.25
2018-06-13T03:15:35.353Z,11.25
2018-06-13T03:16:35.267Z,11.25
2018-06-13T03:17:35.192Z,11.25
2018-06-13T03:18:35.105Z,11.25
2018-06-13T03:19:35.029Z,16.88
2018-06-13T03:20:34.953Z,16.88
2018-06-13T03:21:34.868Z,16.88
2018-06-13T03:22:34.791Z,16.88
2018-06-13T03:23:34.718Z,16.88
2018-06-13T03:24:34.629Z,16.88
2018-06-13T03:25:34.554Z,16.88
2018-06-13T03:26:34.479Z,16.88
2018-06-13T03:27:34.392Z,16.88
2018-06-13T03:28:34.319Z,16.88
2018-06-13T03:29:34.233Z,16.88
2018-06-13T03:30:34.155Z,16.88
2018-06-13T03:31:34.082Z,16.88
2018-06-13T03:32:33.993Z,22.50
2018-06-13T03:33:33.919Z,22.50
2018-06-13T03:34:33.843Z,22.50
2018-06-13T03:35:33.756Z,22.50
2018-06-13T03:36:33.681Z,22.50
2018-06-13T03:37:33.606Z,22.50
2018-06-13T03:38:33.520Z,28.13
2018-06-13T03:39:33.445Z,22.50
2018-06-13T03:40:33.370Z,22.50
2018-06-13T03:41:33.282Z,28.13
2018-06-13T03:42:33.206Z,28.13
2018-06-13T03:43:33.132Z,28.13
2018-06-13T03:44:33.045Z,28.13
2018-06-13T03:45:32.972Z,28.13
2018-06-13T03:46:32.900Z,28.13
2018-06-13T03:47:32.811Z,28.13
2018-06-13T03:48:32.732Z,28.13
2018-06-13T03:49:32.653Z,28.13
2018-06-13T03:50:32.570Z,28.13
2018-06-13T03:51:32.495Z,28.13
2018-06-13T03:52:32.408Z,28.13
2018-06-13T03:53:32.338Z,28.13
2018-06-13T03:54:32.258Z,28.13
2018-06-13T03:55:32.175Z,28.13
2018-06-13T03:56:32.097Z,28.13
2018-06-13T03:57:32.022Z,28.13
2018-06-13T03:58:31.946Z,28.13
2018-06-13T03:59:31.858Z,33.75
2018-06-13T04:00:31.783Z,33.75
2018-06-13T04:01:31.696Z,39.38
2018-06-13T04:02:31.623Z,39.38
2018-06-13T04:03:31.548Z,39.38
2018-06-13T04:04:31.459Z,39.38
2018-06-13T04:05:31.385Z,45.00
2018-06-13T04:06:31.310Z,45.00
2018-06-13T04:07:31.224Z,45.00
2018-06-13T04:08:31.148Z,50.63
2018-06-13T04:09:31.061Z,50.63
2018-06-13T04:10:30.985Z,50.63
2018-06-13T04:11:30.911Z,56.25
2018-06-13T04:12:30.824Z,56.25
2018-06-13T04:13:30.749Z,56.25
2018-06-13T04:14:30.674Z,56.25
2018-06-13T04:15:30.586Z,56.25
2018-06-13T04:16:30.524Z,56.25
2018-06-13T04:17:30.435Z,56.25
2018-06-13T04:18:30.349Z,61.88
2018-06-13T04:19:30.274Z,61.88
2018-06-13T04:20:30.199Z,61.88
2018-06-13T04:21:30.112Z,67.50
2018-06-13T04:22:30.101Z,67.50
2018-06-13T04:23:29.962Z,73.13
2018-06-13T04:24:29.875Z,73.13
2018-06-13T04:25:29.800Z,73.13
2018-06-13T04:26:29.725Z,73.13
2018-06-13T04:27:29.637Z,73.13
2018-06-13T04:28:29.575Z,73.13
2018-06-13T04:29:29.489Z,73.13
2018-06-13T04:30:29.408Z,78.75
2018-06-13T04:31:29.326Z,78.75
2018-06-13T04:32:29.239Z,78.75
2018-06-13T04:33:29.164Z,78.75
2018-06-13T04:34:29.088Z,84.38
2018-06-13T04:35:29.003Z,84.38
2018-06-13T04:36:28.927Z,84.38
2018-06-13T04:37:28.851Z,84.38
2018-06-13T04:38:28.776Z,90.00
2018-06-13T04:39:28.688Z,95.63
2018-06-13T04:40:28.614Z,101.25
2018-06-13T04:41:28.526Z,106.88
2018-06-13T04:42:28.451Z,112.50
2018-06-13T04:43:28.377Z,123.75
2018-06-13T04:44:28.301Z,129.38
2018-06-13T04:45:28.213Z,140.63
2018-06-13T04:46:28.138Z,151.88
2018-06-13T04:47:28.053Z,157.50
2018-06-13T04:48:27.977Z,157.50
2018-06-13T04:49:27.902Z,157.50
2018-06-13T04:50:27.814Z,163.13
2018-06-13T04:51:27.739Z,168.75
2018-06-13T04:52:27.664Z,168.75
2018-06-13T04:53:27.578Z,168.75
2018-06-13T04:54:27.503Z,174.38
2018-06-13T04:55:27.428Z,174.38
2018-06-13T04:56:27.340Z,180.00
2018-06-13T04:57:27.264Z,196.88
2018-06-13T04:58:27.190Z,208.13
2018-06-13T04:59:27.104Z,219.38
2018-06-13T05:00:27.029Z,219.38
2018-06-13T05:01:26.953Z,225.00
2018-06-13T05:02:26.865Z,213.75
2018-06-13T05:03:26.791Z,196.88
2018-06-13T05:04:26.965Z,180.00
2018-06-13T05:05:26.630Z,174.38
2018-06-13T05:06:26.566Z,168.75
2018-06-13T05:07:26.480Z,168.75
2018-06-13T05:08:26.393Z,163.13
2018-06-13T05:09:26.316Z,157.50
2018-06-13T05:10:26.241Z,151.88
2018-06-13T05:11:26.157Z,146.25
2018-06-13T05:12:26.080Z,140.63
2018-06-13T05:13:26.006Z,129.38
2018-06-13T05:14:25.917Z,112.50
2018-06-13T05:15:25.842Z,101.25
2018-06-13T05:16:25.767Z,95.63
2018-06-13T05:17:25.690Z,84.38
2018-06-13T05:18:25.606Z,84.38
2018-06-13T05:19:25.785Z,78.75
2018-06-13T05:20:25.456Z,78.75
2018-06-13T05:21:25.367Z,73.13
2018-06-13T05:22:25.294Z,73.13
2018-06-13T05:23:25.206Z,73.13
2018-06-13T05:24:25.132Z,73.13
2018-06-13T05:25:25.057Z,73.13
2018-06-13T05:26:24.970Z,73.13
2018-06-13T05:27:24.896Z,78.75
2018-06-13T05:28:24.821Z,78.75
2018-06-13T05:29:24.744Z,78.75
2018-06-13T05:30:24.657Z,84.38
2018-06-13T05:31:24.582Z,84.38
2018-06-13T05:32:24.494Z,84.38
2018-06-13T05:33:24.418Z,90.00
2018-06-13T05:34:24.380Z,90.00
2018-06-13T05:35:24.282Z,90.00
2018-06-13T05:36:24.185Z,95.63
2018-06-13T05:37:24.109Z,95.63
2018-06-13T05:38:24.021Z,95.63
2018-06-13T05:39:23.948Z,95.63
2018-06-13T05:40:23.870Z,95.63
2018-06-13T05:41:23.783Z,101.25
2018-06-13T05:42:23.711Z,101.25
2018-06-13T05:43:23.637Z,106.88
2018-06-13T05:44:23.845Z,106.88
2018-06-13T05:45:23.471Z,112.50
2018-06-13T05:46:23.395Z,118.13
2018-06-13T05:47:23.309Z,123.75
2018-06-13T05:48:23.234Z,129.38
2018-06-13T05:49:23.160Z,135.00
2018-06-13T05:50:23.071Z,140.63
2018-06-13T05:51:22.996Z,140.63
2018-06-13T05:52:22.922Z,140.63
2018-06-13T05:53:22.834Z,140.63
2018-06-13T05:54:22.760Z,146.25
2018-06-13T05:55:22.685Z,146.25
2018-06-13T05:56:22.600Z,146.25
2018-06-13T05:57:22.523Z,151.88
2018-06-13T05:58:22.447Z,151.88
2018-06-13T05:59:22.361Z,157.50
2018-06-13T06:00:22.287Z,157.50
2018-06-13T06:01:22.261Z,163.13
2018-06-13T06:02:22.123Z,168.75
2018-06-13T06:03:22.047Z,168.75
2018-06-13T06:04:21.972Z,168.75
2018-06-13T06:05:21.886Z,163.13
2018-06-13T06:06:21.811Z,157.50
2018-06-13T06:07:21.736Z,151.88
2018-06-13T06:08:21.650Z,151.88
2018-06-13T06:09:21.573Z,146.25
2018-06-13T06:10:21.579Z,140.63
2018-06-13T06:11:21.412Z,140.63
2018-06-13T06:12:21.337Z,135.00
2018-06-13T06:13:21.262Z,140.63
2018-06-13T06:14:21.173Z,140.63
2018-06-13T06:15:21.099Z,140.63
2018-06-13T06:16:21.026Z,146.25
2018-06-13T06:17:20.941Z,151.88
2018-06-13T06:18:20.908Z,163.13
2018-06-13T06:19:20.788Z,168.75
2018-06-13T06:20:20.701Z,174.38
2018-06-13T06:21:20.626Z,174.38
2018-06-13T06:22:20.604Z,174.38
2018-06-13T06:23:20.466Z,180.00
2018-06-13T06:24:20.391Z,191.25
2018-06-13T06:25:20.317Z,202.50
2018-06-13T06:26:20.226Z,213.75
2018-06-13T06:27:20.151Z,219.38
2018-06-13T06:28:20.076Z,219.38
2018-06-13T06:29:19.989Z,219.38
2018-06-13T06:30:19.913Z,219.38
2018-06-13T06:31:19.843Z,213.75
2018-06-13T06:32:19.751Z,213.75
2018-06-13T06:33:19.676Z,213.75
2018-06-13T06:34:19.615Z,225.00
2018-06-13T06:35:19.516Z,236.25
2018-06-13T06:36:19.441Z,253.13
2018-06-13T06:37:19.354Z,270.00
2018-06-13T06:38:19.276Z,281.25
2018-06-13T06:39:19.203Z,286.88
2018-06-13T06:40:19.127Z,298.13
2018-06-13T06:41:19.044Z,309.38
2018-06-13T06:42:18.966Z,315.00
2018-06-13T06:43:18.891Z,326.25
2018-06-13T06:44:18.802Z,337.50
2018-06-13T06:45:18.745Z,337.50
2018-06-13T06:46:18.653Z,343.13
2018-06-13T06:47:18.566Z,354.38
2018-06-13T06:48:18.503Z,365.63
2018-06-13T06:49:18.417Z,365.63
2018-06-13T06:50:18.328Z,365.63
2018-06-13T06:51:18.253Z,360.00
2018-06-13T06:52:18.186Z,365.63
2018-06-13T06:53:18.093Z,371.25
2018-06-13T06:54:18.017Z,376.88
2018-06-13T06:55:17.946Z,376.88
2018-06-13T06:56:17.856Z,376.88
2018-06-13T06:57:17.779Z,376.88
2018-06-13T06:58:17.704Z,365.63
2018-06-13T06:59:17.879Z,365.63
2018-06-13T07:00:17.543Z,376.88
2018-06-13T07:01:17.468Z,388.13
2018-06-13T07:02:17.393Z,416.25
2018-06-13T07:03:17.306Z,433.13
2018-06-13T07:04:17.230Z,455.63
2018-06-13T07:05:17.156Z,455.63
2018-06-13T07:06:17.081Z,444.38
2018-06-13T07:07:16.994Z,438.75
2018-06-13T07:08:16.919Z,438.75
2018-06-13T07:09:16.844Z,444.38
2018-06-13T07:10:16.756Z,444.38
2018-06-13T07:11:16.680Z,433.13
2018-06-13T07:12:16.606Z,438.75
2018-06-13T07:13:16.546Z,444.38
2018-06-13T07:14:16.445Z,433.13
2018-06-13T07:15:16.371Z,388.13
2018-06-13T07:16:16.294Z,376.88
2018-06-13T07:17:16.208Z,360.00
2018-06-13T07:18:16.131Z,354.38
2018-06-13T07:19:16.307Z,354.38
2018-06-13T07:20:15.982Z,365.63
2018-06-13T07:21:15.896Z,410.63
2018-06-13T07:22:15.826Z,360.00
2018-06-13T07:23:15.746Z,337.50
2018-06-13T07:24:15.671Z,320.63
2018-06-13T07:25:15.595Z,371.25
2018-06-13T07:26:15.515Z,365.63
2018-06-13T07:27:15.432Z,365.63
2018-06-13T07:28:15.358Z,365.63
2018-06-13T07:29:15.283Z,399.38
2018-06-13T07:30:15.198Z,461.25
2018-06-13T07:31:15.122Z,461.25
2018-06-13T07:32:15.050Z,489.38
2018-06-13T07:33:14.978Z,624.38
2018-06-13T07:34:14.885Z,669.38
2018-06-13T07:35:14.821Z,562.50
2018-06-13T07:36:14.736Z,545.63
2018-06-13T07:37:14.660Z,416.25
2018-06-13T07:38:14.588Z,365.63
2018-06-13T07:39:14.760Z,444.38
2018-06-13T07:40:14.423Z,472.50
2018-06-13T07:41:14.348Z,421.88
2018-06-13T07:42:14.273Z,416.25
2018-06-13T07:43:14.205Z,697.50
2018-06-13T07:44:14.123Z,781.88
2018-06-13T07:45:14.037Z,590.63
2018-06-13T07:46:13.960Z,770.63
2018-06-13T07:47:13.885Z,579.38
2018-06-13T07:48:13.810Z,528.75
2018-06-13T07:49:13.735Z,472.50
2018-06-13T07:50:13.675Z,376.88
2018-06-13T07:51:13.587Z,371.25
2018-06-13T07:52:13.511Z,421.88
2018-06-13T07:53:13.435Z,427.50
2018-06-13T07:54:13.349Z,388.13
2018-06-13T07:55:13.300Z,388.13
2018-06-13T07:56:13.203Z,360.00
2018-06-13T07:57:13.125Z,326.25
2018-06-13T07:58:13.049Z,343.13
2018-06-13T07:59:12.974Z,292.50
2018-06-13T08:00:12.903Z,371.25
2018-06-13T08:01:12.825Z,596.25
2018-06-13T08:02:12.750Z,821.25
2018-06-13T08:03:12.662Z,573.75
2018-06-13T08:04:12.588Z,703.13
2018-06-13T08:05:12.513Z,1912.50
2018-06-13T08:06:12.437Z,2638.13
2018-06-13T08:07:12.363Z,3200.63
2018-06-13T08:08:12.301Z,860.63
2018-06-13T08:09:12.213Z,725.63
2018-06-13T08:10:12.140Z,624.38
2018-06-13T08:11:12.063Z,551.25
2018-06-13T08:12:11.976Z,562.50
2018-06-13T08:13:11.900Z,500.63
2018-06-13T08:14:11.827Z,433.13
2018-06-13T08:15:11.763Z,433.13
2018-06-13T08:16:11.676Z,427.50
2018-06-13T08:17:11.603Z,405.00
2018-06-13T08:18:11.527Z,365.63
2018-06-13T08:19:11.452Z,348.75
2018-06-13T08:20:11.377Z,343.13
2018-06-13T08:21:11.310Z,393.75
2018-06-13T08:22:11.227Z,916.88
2018-06-13T08:23:11.153Z,883.13
2018-06-13T08:24:11.083Z,945.00
2018-06-13T08:25:11.003Z,984.38
2018-06-13T08:26:10.934Z,849.38
2018-06-13T08:27:10.853Z,686.25
2018-06-13T08:28:10.780Z,292.50
2018-06-13T08:29:10.705Z,225.00
2018-06-13T08:30:10.629Z,219.38
2018-06-13T08:31:10.553Z,236.25
2018-06-13T08:32:10.479Z,253.13
2018-06-13T08:33:10.404Z,275.63
2018-06-13T08:34:10.329Z,298.13
2018-06-13T08:35:10.254Z,320.63
2018-06-13T08:36:10.179Z,337.50
2018-06-13T08:37:10.104Z,365.63
2018-06-13T08:38:10.040Z,410.63
2018-06-13T08:39:10.205Z,466.88
2018-06-13T08:40:09.893Z,517.50
2018-06-13T08:41:09.805Z,556.88
2018-06-13T08:42:09.741Z,613.13
2018-06-13T08:43:09.655Z,663.75
2018-06-13T08:44:09.580Z,714.38
2018-06-13T08:45:09.505Z,776.25
2018-06-13T08:46:09.430Z,826.88
2018-06-13T08:47:09.355Z,821.25
2018-06-13T08:48:09.280Z,815.63
2018-06-13T08:49:09.206Z,821.25
2018-06-13T08:50:09.131Z,821.25
2018-06-13T08:51:09.062Z,798.75
2018-06-13T08:52:08.980Z,810.00
2018-06-13T08:53:08.906Z,838.13
2018-06-13T08:54:08.839Z,905.63
2018-06-13T08:55:08.759Z,877.50
2018-06-13T08:56:08.681Z,894.38
2018-06-13T08:57:08.606Z,928.13
2018-06-13T08:58:08.531Z,1001.25
2018-06-13T08:59:08.461Z,1040.63
2018-06-13T09:00:08.369Z,1029.38
2018-06-13T09:01:08.294Z,956.25
2018-06-13T09:02:08.235Z,793.13
2018-06-13T09:03:08.144Z,731.25
2018-06-13T09:04:08.069Z,720.00
2018-06-13T09:05:07.995Z,770.63
2018-06-13T09:06:07.932Z,798.75
2018-06-13T09:07:07.844Z,776.25
2018-06-13T09:08:07.770Z,736.88
2018-06-13T09:09:07.695Z,787.50
2018-06-13T09:10:07.632Z,759.38
2018-06-13T09:11:07.545Z,793.13
2018-06-13T09:12:07.470Z,1282.50
2018-06-13T09:13:07.395Z,708.75
2018-06-13T09:14:07.322Z,573.75
2018-06-13T09:15:07.245Z,416.25
2018-06-13T09:16:07.170Z,331.88
2018-06-13T09:17:07.095Z,286.88
2018-06-13T09:18:07.021Z,286.88
2018-06-13T09:19:07.197Z,315.00
2018-06-13T09:20:06.871Z,343.13
2018-06-13T09:21:06.796Z,376.88
2018-06-13T09:22:06.723Z,393.75
2018-06-13T09:23:06.659Z,410.63
2018-06-13T09:24:06.571Z,410.63
2018-06-13T09:25:06.496Z,405.00
2018-06-13T09:26:06.425Z,399.38
2018-06-13T09:27:06.360Z,405.00
2018-06-13T09:28:06.272Z,410.63
2018-06-13T09:29:06.198Z,427.50
2018-06-13T09:30:06.122Z,455.63
2018-06-13T09:31:06.061Z,495.00
2018-06-13T09:32:05.972Z,540.00
2018-06-13T09:33:05.887Z,573.75
2018-06-13T09:34:05.837Z,607.50
2018-06-13T09:35:05.739Z,641.25
2018-06-13T09:36:05.660Z,658.13
2018-06-13T09:37:05.585Z,691.88
2018-06-13T09:38:05.512Z,725.63
2018-06-13T09:39:05.437Z,680.63
2018-06-13T09:40:05.361Z,630.00
2018-06-13T09:41:05.274Z,691.88
2018-06-13T09:42:05.199Z,635.63
2018-06-13T09:43:05.129Z,630.00
2018-06-13T09:44:05.059Z,618.75
2018-06-13T09:45:04.974Z,601.88
2018-06-13T09:46:11.861Z,669.38
2018-06-13T09:47:06.903Z,691.88
2018-06-13T09:48:04.749Z,776.25
2018-06-13T09:49:04.674Z,871.88
2018-06-13T09:50:04.631Z,871.88
2018-06-13T09:51:04.514Z,905.63
2018-06-13T09:52:04.437Z,883.13
2018-06-13T09:53:04.363Z,832.50
2018-06-13T09:54:04.288Z,776.25
2018-06-13T09:55:04.214Z,748.13
2018-06-13T09:56:04.138Z,731.25
2018-06-13T09:57:04.068Z,720.00
2018-06-13T09:58:03.991Z,669.38
2018-06-13T09:59:04.156Z,624.38
2018-06-13T10:00:03.827Z,607.50
2018-06-13T10:01:03.751Z,635.63
2018-06-13T10:02:03.676Z,658.13
2018-06-13T10:03:03.601Z,658.13
2018-06-13T10:04:03.528Z,624.38
2018-06-13T10:05:03.451Z,618.75
2018-06-13T10:06:03.376Z,641.25
2018-06-13T10:07:03.301Z,663.75
2018-06-13T10:08:03.239Z,680.63
2018-06-13T10:09:03.152Z,686.25
2018-06-13T10:10:03.077Z,697.50
2018-06-13T10:11:03.001Z,697.50
2018-06-13T10:12:02.915Z,686.25
2018-06-13T10:13:02.897Z,680.63
2018-06-13T10:14:02.766Z,686.25
2018-06-13T10:15:02.693Z,686.25
2018-06-13T10:16:02.617Z,675.00
2018-06-13T10:17:02.541Z,663.75
2018-06-13T10:18:02.466Z,646.88
2018-06-13T10:19:02.391Z,658.13
2018-06-13T10:20:02.304Z,697.50
2018-06-13T10:21:02.241Z,742.50
2018-06-13T10:22:02.153Z,781.88
2018-06-13T10:23:02.078Z,821.25
2018-06-13T10:24:02.003Z,860.63
2018-06-13T10:25:01.933Z,900.00
2018-06-13T10:26:01.853Z,939.38
2018-06-13T10:27:01.780Z,956.25
2018-06-13T10:28:01.703Z,995.63
2018-06-13T10:29:01.685Z,1063.13
2018-06-13T10:30:01.558Z,1108.13
2018-06-13T10:31:01.481Z,1147.50
2018-06-13T10:32:01.392Z,1035.00
2018-06-13T10:33:01.327Z,1130.63
2018-06-13T10:34:01.241Z,1333.13
2018-06-13T10:35:01.168Z,1400.63
2018-06-13T10:36:01.095Z,978.75
2018-06-13T10:37:01.020Z,708.75
2018-06-13T10:38:00.944Z,534.38
2018-06-13T10:39:01.125Z,421.88
2018-06-13T10:40:00.792Z,360.00
2018-06-13T10:41:00.718Z,298.13
2018-06-13T10:42:00.643Z,270.00
2018-06-13T10:43:00.568Z,281.25
2018-06-13T10:44:00.493Z,298.13
2018-06-13T10:45:00.419Z,326.25
2018-06-13T10:46:00.343Z,348.75
2018-06-13T10:47:00.269Z,354.38
2018-06-13T10:48:00.194Z,354.38
2018-06-13T10:49:00.119Z,337.50
2018-06-13T10:50:00.049Z,315.00
2018-06-13T10:50:59.969Z,298.13
2018-06-13T10:51:59.894Z,292.50
2018-06-13T10:52:59.819Z,298.13
2018-06-13T10:53:59.744Z,326.25
2018-06-13T10:54:59.669Z,354.38
2018-06-13T10:55:59.594Z,365.63
2018-06-13T10:56:59.519Z,371.25
2018-06-13T10:57:59.433Z,376.88
2018-06-13T10:58:59.358Z,376.88
2018-06-13T10:59:59.282Z,371.25
2018-06-13T11:00:59.208Z,371.25
2018-06-13T11:01:59.132Z,371.25
2018-06-13T11:02:59.070Z,371.25
2018-06-13T11:03:58.981Z,382.50
2018-06-13T11:04:58.907Z,410.63
2018-06-13T11:05:58.820Z,410.63
2018-06-13T11:06:58.748Z,393.75
2018-06-13T11:07:58.672Z,388.13
2018-06-13T11:08:58.596Z,399.38
2018-06-13T11:09:58.521Z,388.13
2018-06-13T11:10:58.445Z,371.25
2018-06-13T11:11:58.371Z,354.38
2018-06-13T11:12:58.283Z,315.00
2018-06-13T11:13:58.208Z,292.50
2018-06-13T11:14:58.133Z,281.25
2018-06-13T11:15:58.071Z,281.25
2018-06-13T11:16:57.971Z,270.00
2018-06-13T11:17:57.899Z,270.00
2018-06-13T11:18:58.071Z,270.00
2018-06-13T11:19:57.746Z,270.00
2018-06-13T11:20:57.672Z,281.25
2018-06-13T11:21:57.586Z,286.88
2018-06-13T11:22:57.509Z,292.50
2018-06-13T11:23:57.433Z,292.50
2018-06-13T11:24:57.380Z,292.50
2018-06-13T11:25:57.284Z,303.75
2018-06-13T11:26:57.205Z,309.38
2018-06-13T11:27:57.123Z,303.75
2018-06-13T11:28:57.049Z,303.75
2018-06-13T11:29:56.973Z,315.00
2018-06-13T11:30:56.899Z,331.88
2018-06-13T11:31:56.810Z,365.63
2018-06-13T11:32:56.735Z,393.75
2018-06-13T11:33:56.674Z,416.25
2018-06-13T11:34:56.586Z,427.50
2018-06-13T11:35:56.510Z,421.88
2018-06-13T11:36:56.423Z,433.13
2018-06-13T11:37:56.351Z,438.75
2018-06-13T11:38:56.278Z,466.88
2018-06-13T11:39:56.199Z,483.75
2018-06-13T11:40:56.113Z,500.63
2018-06-13T11:41:56.036Z,528.75
2018-06-13T11:42:55.961Z,551.25
2018-06-13T11:43:55.887Z,545.63
2018-06-13T11:44:55.811Z,545.63
2018-06-13T11:45:55.725Z,551.25
2018-06-13T11:46:55.650Z,573.75
2018-06-13T11:47:55.575Z,635.63
2018-06-13T11:48:55.500Z,708.75
2018-06-13T11:49:55.425Z,748.13
2018-06-13T11:50:55.340Z,765.00
2018-06-13T11:51:55.263Z,770.63
2018-06-13T11:52:55.187Z,753.75
2018-06-13T11:53:55.112Z,787.50
2018-06-13T11:54:55.038Z,871.88
2018-06-13T11:55:54.952Z,911.25
2018-06-13T11:56:54.876Z,961.88
2018-06-13T11:57:54.801Z,821.25
2018-06-13T11:58:54.976Z,742.50
2018-06-13T11:59:54.651Z,759.38
2018-06-13T12:00:54.576Z,691.88
2018-06-13T12:01:54.490Z,607.50
2018-06-13T12:02:54.419Z,438.75
2018-06-13T12:03:54.342Z,315.00
2018-06-13T12:04:54.265Z,270.00
2018-06-13T12:05:54.189Z,320.63
2018-06-13T12:06:54.114Z,376.88
2018-06-13T12:07:54.039Z,421.88
2018-06-13T12:08:53.953Z,450.00
2018-06-13T12:09:53.877Z,461.25
2018-06-13T12:10:53.848Z,500.63
2018-06-13T12:11:53.727Z,517.50
2018-06-13T12:12:53.651Z,495.00
2018-06-13T12:13:53.581Z,500.63
2018-06-13T12:14:53.504Z,568.13
2018-06-13T12:15:53.427Z,573.75
2018-06-13T12:16:53.368Z,528.75
2018-06-13T12:17:53.264Z,450.00
2018-06-13T12:18:53.190Z,427.50
2018-06-13T12:19:53.117Z,399.38
2018-06-13T12:20:53.040Z,360.00
2018-06-13T12:21:52.954Z,337.50
2018-06-13T12:22:52.890Z,331.88
2018-06-13T12:23:52.804Z,298.13
2018-06-13T12:24:52.731Z,292.50
2018-06-13T12:25:52.654Z,376.88
2018-06-13T12:26:52.579Z,500.63
2018-06-13T12:27:52.532Z,585.00
2018-06-13T12:28:52.429Z,573.75
2018-06-13T12:29:52.341Z,534.38
2018-06-13T12:30:52.268Z,472.50
2018-06-13T12:31:52.191Z,421.88
2018-06-13T12:32:52.130Z,399.38
2018-06-13T12:33:52.030Z,450.00
2018-06-13T12:34:51.955Z,466.88
2018-06-13T12:35:51.880Z,455.63
2018-06-13T12:36:51.805Z,478.13
2018-06-13T12:37:51.731Z,517.50
2018-06-13T12:38:51.906Z,517.50
2018-06-13T12:39:51.567Z,534.38
2018-06-13T12:40:51.492Z,534.38
2018-06-13T12:41:51.431Z,483.75
2018-06-13T12:42:51.343Z,410.63